sensor_id;sensor_type;location;lat;lon;timestamp;pressure;altitude;pressure_sealevel;temperature;humidity
21545;BME280;10933;50.754;11.508;2024-01-15T00:00:45;98160.06;;;0.36;100.00
21545;BME280;10933;50.754;11.508;2024-01-15T00:03:11;98161.59;;;0.25;100.00
21545;BME280;10933;50.754;11.508;2024-01-15T00:05:37;98165.22;;;0.31;100.00
21545;BME280;10933;50.754;11.508;2024-01-15T00:08:03;98161.59;;;0.25;100.00
21545;BME280;10933;50.754;11.508;2024-01-15T00:10:29;98144.34;;;0.16;100.00
21545;BME280;10933;50.754;11.508;2024-01-15T00:12:55;98148.41;;;0.19;100.00
21545;BME280;10933;50.754;11.508;2024-01-15T00:15:21;98157.69;;;0.28;100.00
21545;BME280;10933;50.754;11.508;2024-01-15T00:17:48;98162.84;;;0.23;100.00
21545;BME280;10933;50.754;11.508;2024-01-15T00:20:14;98162.78;;;0.29;100.00
21545;BME280;10933;50.754;11.508;2024-01-15T00:22:40;98168.72;;;0.25;100.00
21545;BME280;10933;50.754;11.508;2024-01-15T00:25:06;98166.69;;;0.27;100.00
21545;BME280;10933;50.754;11.508;2024-01-15T00:27:32;98168.31;;;0.28;100.00
21545;BME280;10933;50.754;11.508;2024-01-15T00:29:58;98155.19;;;0.15;100.00
21545;BME280;10933;50.754;11.508;2024-01-15T00:32:25;98165.34;;;0.18;100.00
21545;BME280;10933;50.754;11.508;2024-01-15T00:34:51;98150.81;;;0.20;100.00
21545;BME280;10933;50.754;11.508;2024-01-15T00:37:17;98159.91;;;0.13;100.00
21545;BME280;10933;50.754;11.508;2024-01-15T00:39:43;98178.97;;;0.21;100.00
21545;BME280;10933;50.754;11.508;2024-01-15T00:42:09;98171.47;;;0.18;100.00
21545;BME280;10933;50.754;11.508;2024-01-15T00:44:35;98179.19;;;0.20;100.00
21545;BME280;10933;50.754;11.508;2024-01-15T00:47:01;98161.34;;;0.09;100.00
21545;BME280;10933;50.754;11.508;2024-01-15T00:49:28;98166.63;;;0.09;100.00
21545;BME280;10933;50.754;11.508;2024-01-15T00:51:54;98178.00;;;0.16;100.00
21545;BME280;10933;50.754;11.508;2024-01-15T00:54:20;98183.13;;;0.11;100.00
21545;BME280;10933;50.754;11.508;2024-01-15T00:56:46;98163.84;;;0.04;100.00
21545;BME280;10933;50.754;11.508;2024-01-15T00:59:12;98167.94;;;-0.01;100.00
21545;BME280;10933;50.754;11.508;2024-01-15T01:01:41;98166.06;;;0.07;100.00
21545;BME280;10933;50.754;11.508;2024-01-15T01:04:09;98159.66;;;0.14;100.00
21545;BME280;10933;50.754;11.508;2024-01-15T01:06:35;98147.34;;;0.02;100.00
21545;BME280;10933;50.754;11.508;2024-01-15T01:09:02;98146.84;;;-0.14;100.00
21545;BME280;10933;50.754;11.508;2024-01-15T01:11:28;98150.53;;;-0.15;100.00
21545;BME280;10933;50.754;11.508;2024-01-15T01:13:54;98137.44;;;-0.10;100.00
21545;BME280;10933;50.754;11.508;2024-01-15T01:16:20;98140.34;;;-0.18;100.00
21545;BME280;10933;50.754;11.508;2024-01-15T01:18:46;98126.66;;;-0.15;100.00
21545;BME280;10933;50.754;11.508;2024-01-15T01:21:12;98116.03;;;-0.33;100.00
21545;BME280;10933;50.754;11.508;2024-01-15T01:23:38;98133.97;;;-0.35;100.00
21545;BME280;10933;50.754;11.508;2024-01-15T01:26:04;98141.88;;;-0.28;100.00
21545;BME280;10933;50.754;11.508;2024-01-15T01:28:30;98121.09;;;-0.32;100.00
21545;BME280;10933;50.754;11.508;2024-01-15T01:30:57;98123.41;;;-0.42;100.00
21545;BME280;10933;50.754;11.508;2024-01-15T01:33:23;98139.28;;;-0.35;100.00
21545;BME280;10933;50.754;11.508;2024-01-15T01:35:49;98143.88;;;-0.24;100.00
21545;BME280;10933;50.754;11.508;2024-01-15T01:38:15;98136.75;;;-0.23;100.00
21545;BME280;10933;50.754;11.508;2024-01-15T01:40:41;98152.25;;;-0.27;100.00
21545;BME280;10933;50.754;11.508;2024-01-15T01:43:09;98137.13;;;-0.20;100.00
21545;BME280;10933;50.754;11.508;2024-01-15T01:45:36;98149.34;;;-0.19;100.00
21545;BME280;10933;50.754;11.508;2024-01-15T01:48:02;98148.75;;;-0.21;100.00
21545;BME280;10933;50.754;11.508;2024-01-15T01:50:30;98160.81;;;-0.25;100.00
21545;BME280;10933;50.754;11.508;2024-01-15T01:52:57;98138.59;;;-0.24;100.00
21545;BME280;10933;50.754;11.508;2024-01-15T01:55:26;98157.72;;;-0.22;100.00
21545;BME280;10933;50.754;11.508;2024-01-15T01:57:52;98139.63;;;-0.25;100.00
21545;BME280;10933;50.754;11.508;2024-01-15T02:00:19;98145.19;;;-0.08;100.00
21545;BME280;10933;50.754;11.508;2024-01-15T02:02:45;98144.84;;;-0.18;100.00
21545;BME280;10933;50.754;11.508;2024-01-15T02:05:13;98133.44;;;-0.19;100.00
21545;BME280;10933;50.754;11.508;2024-01-15T02:07:41;98120.03;;;-0.24;100.00
21545;BME280;10933;50.754;11.508;2024-01-15T02:10:07;98131.97;;;-0.15;100.00
21545;BME280;10933;50.754;11.508;2024-01-15T02:12:33;98120.63;;;-0.22;100.00
21545;BME280;10933;50.754;11.508;2024-01-15T02:15:00;98122.41;;;-0.16;100.00
21545;BME280;10933;50.754;11.508;2024-01-15T02:17:26;98133.88;;;-0.22;100.00
21545;BME280;10933;50.754;11.508;2024-01-15T02:19:52;98142.34;;;-0.13;100.00
21545;BME280;10933;50.754;11.508;2024-01-15T02:22:18;98133.09;;;-0.29;100.00
21545;BME280;10933;50.754;11.508;2024-01-15T02:24:44;98135.53;;;-0.27;100.00
21545;BME280;10933;50.754;11.508;2024-01-15T02:27:10;98139.63;;;-0.25;100.00
21545;BME280;10933;50.754;11.508;2024-01-15T02:29:36;98132.66;;;-0.26;100.00
21545;BME280;10933;50.754;11.508;2024-01-15T02:32:07;98137.81;;;-0.31;100.00
21545;BME280;10933;50.754;11.508;2024-01-15T02:34:34;98142.88;;;-0.30;100.00
21545;BME280;10933;50.754;11.508;2024-01-15T02:37:00;98138.16;;;-0.21;100.00
21545;BME280;10933;50.754;11.508;2024-01-15T02:39:27;98148.16;;;-0.23;100.00
21545;BME280;10933;50.754;11.508;2024-01-15T02:41:54;98138.84;;;-0.32;100.00
21545;BME280;10933;50.754;11.508;2024-01-15T02:44:23;98135.59;;;-0.34;100.00
21545;BME280;10933;50.754;11.508;2024-01-15T02:46:49;98125.44;;;-0.37;100.00
21545;BME280;10933;50.754;11.508;2024-01-15T02:49:15;98145.09;;;-0.26;100.00
21545;BME280;10933;50.754;11.508;2024-01-15T02:51:41;98135.06;;;-0.18;100.00
21545;BME280;10933;50.754;11.508;2024-01-15T02:54:08;98101.31;;;-0.29;100.00
21545;BME280;10933;50.754;11.508;2024-01-15T02:56:34;98114.28;;;-0.21;100.00
21545;BME280;10933;50.754;11.508;2024-01-15T02:59:00;98127.53;;;-0.21;100.00
21545;BME280;10933;50.754;11.508;2024-01-15T03:01:26;98117.88;;;-0.34;100.00
21545;BME280;10933;50.754;11.508;2024-01-15T03:03:52;98119.03;;;-0.30;100.00
21545;BME280;10933;50.754;11.508;2024-01-15T03:06:18;98119.91;;;-0.36;100.00
21545;BME280;10933;50.754;11.508;2024-01-15T03:08:44;98124.72;;;-0.26;100.00
21545;BME280;10933;50.754;11.508;2024-01-15T03:11:10;98135.16;;;-0.31;100.00
21545;BME280;10933;50.754;11.508;2024-01-15T03:13:37;98122.50;;;-0.29;100.00
21545;BME280;10933;50.754;11.508;2024-01-15T03:16:04;98128.78;;;-0.23;100.00
21545;BME280;10933;50.754;11.508;2024-01-15T03:18:30;98115.53;;;-0.23;100.00
21545;BME280;10933;50.754;11.508;2024-01-15T03:20:56;98093.78;;;-0.32;100.00
21545;BME280;10933;50.754;11.508;2024-01-15T03:23:22;98117.66;;;-0.32;100.00
21545;BME280;10933;50.754;11.508;2024-01-15T03:25:48;98119.41;;;-0.26;100.00
21545;BME280;10933;50.754;11.508;2024-01-15T03:28:15;98126.56;;;-0.26;100.00
21545;BME280;10933;50.754;11.508;2024-01-15T03:30:41;98121.66;;;-0.23;100.00
21545;BME280;10933;50.754;11.508;2024-01-15T03:33:07;98116.03;;;-0.33;100.00
21545;BME280;10933;50.754;11.508;2024-01-15T03:35:33;98118.50;;;-0.38;100.00
21545;BME280;10933;50.754;11.508;2024-01-15T03:37:59;98123.75;;;-0.32;100.00
21545;BME280;10933;50.754;11.508;2024-01-15T03:40:25;98119.91;;;-0.36;100.00
21545;BME280;10933;50.754;11.508;2024-01-15T03:42:51;98116.41;;;-0.30;100.00
21545;BME280;10933;50.754;11.508;2024-01-15T03:45:17;98120.28;;;-0.32;100.00
21545;BME280;10933;50.754;11.508;2024-01-15T03:47:43;98128.84;;;-0.30;100.00
21545;BME280;10933;50.754;11.508;2024-01-15T03:50:10;98126.50;;;-0.20;100.00
21545;BME280;10933;50.754;11.508;2024-01-15T03:52:36;98121.31;;;-0.33;100.00
21545;BME280;10933;50.754;11.508;2024-01-15T03:55:03;98119.22;;;-0.24;100.00
21545;BME280;10933;50.754;11.508;2024-01-15T03:57:29;98130.00;;;-0.26;100.00
21545;BME280;10933;50.754;11.508;2024-01-15T03:59:55;98131.22;;;-0.22;100.00
21545;BME280;10933;50.754;11.508;2024-01-15T04:02:21;98122.63;;;-0.17;100.00
21545;BME280;10933;50.754;11.508;2024-01-15T04:04:47;98095.63;;;-0.33;100.00
21545;BME280;10933;50.754;11.508;2024-01-15T04:07:13;98122.97;;;-0.14;100.00
21545;BME280;10933;50.754;11.508;2024-01-15T04:09:39;98121.94;;;-0.13;100.00
21545;BME280;10933;50.754;11.508;2024-01-15T04:12:06;98122.06;;;-0.26;100.00
21545;BME280;10933;50.754;11.508;2024-01-15T04:14:32;98110.66;;;-0.26;100.00
21545;BME280;10933;50.754;11.508;2024-01-15T04:16:58;98117.09;;;-0.16;100.00
21545;BME280;10933;50.754;11.508;2024-01-15T04:19:24;98115.53;;;-0.23;100.00
21545;BME280;10933;50.754;11.508;2024-01-15T04:21:50;98109.44;;;-0.24;100.00
21545;BME280;10933;50.754;11.508;2024-01-15T04:24:16;98112.78;;;-0.35;100.00
21545;BME280;10933;50.754;11.508;2024-01-15T04:26:44;98119.25;;;-0.31;100.00
21545;BME280;10933;50.754;11.508;2024-01-15T04:29:10;98115.00;;;-0.32;100.00
21545;BME280;10933;50.754;11.508;2024-01-15T04:31:36;98120.44;;;-0.27;100.00
21545;BME280;10933;50.754;11.508;2024-01-15T04:34:02;98126.56;;;-0.26;100.00
21545;BME280;10933;50.754;11.508;2024-01-15T04:36:28;98117.78;;;-0.27;100.00
21545;BME280;10933;50.754;11.508;2024-01-15T04:38:54;98135.31;;;-0.26;100.00
21545;BME280;10933;50.754;11.508;2024-01-15T04:41:20;98131.66;;;-0.25;100.00
21545;BME280;10933;50.754;11.508;2024-01-15T04:43:46;98133.47;;;-0.25;100.00
21545;BME280;10933;50.754;11.508;2024-01-15T04:46:13;98140.03;;;-0.28;100.00
21545;BME280;10933;50.754;11.508;2024-01-15T04:48:39;98152.53;;;-0.10;100.00
21545;BME280;10933;50.754;11.508;2024-01-15T04:51:05;98145.91;;;-0.26;100.00
21545;BME280;10933;50.754;11.508;2024-01-15T04:53:33;98153.44;;;-0.23;100.00
21545;BME280;10933;50.754;11.508;2024-01-15T04:55:59;98148.78;;;-0.27;100.00
21545;BME280;10933;50.754;11.508;2024-01-15T04:58:25;98153.56;;;-0.11;100.00
21545;BME280;10933;50.754;11.508;2024-01-15T05:00:53;98142.09;;;-0.30;100.00
21545;BME280;10933;50.754;11.508;2024-01-15T05:03:20;98143.69;;;-0.29;100.00
21545;BME280;10933;50.754;11.508;2024-01-15T05:05:46;98144.25;;;-0.45;100.00
21545;BME280;10933;50.754;11.508;2024-01-15T05:08:12;98130.84;;;-0.50;100.00
21545;BME280;10933;50.754;11.508;2024-01-15T05:10:38;98149.53;;;-0.45;100.00
21545;BME280;10933;50.754;11.508;2024-01-15T05:13:04;98160.13;;;-0.45;100.00
21545;BME280;10933;50.754;11.508;2024-01-15T05:15:30;98143.47;;;-0.52;100.00
21545;BME280;10933;50.754;11.508;2024-01-15T05:17:56;98144.25;;;-0.45;100.00
21545;BME280;10933;50.754;11.508;2024-01-15T05:20:42;98128.47;;;-0.65;100.00
21545;BME280;10933;50.754;11.508;2024-01-15T05:23:08;98127.44;;;-0.64;100.00
21545;BME280;10933;50.754;11.508;2024-01-15T05:25:34;98126.44;;;-0.63;100.00
21545;BME280;10933;50.754;11.508;2024-01-15T05:28:01;98130.28;;;-0.59;100.00
21545;BME280;10933;50.754;11.508;2024-01-15T05:30:28;98126.00;;;-0.60;100.00
21545;BME280;10933;50.754;11.508;2024-01-15T05:32:54;98128.88;;;-0.62;100.00
21545;BME280;10933;50.754;11.508;2024-01-15T05:35:20;98117.47;;;-0.62;100.00
21545;BME280;10933;50.754;11.508;2024-01-15T05:37:46;98107.41;;;-0.53;100.00
21545;BME280;10933;50.754;11.508;2024-01-15T05:40:13;98104.84;;;-0.67;100.00
21545;BME280;10933;50.754;11.508;2024-01-15T05:42:39;98100.00;;;-0.70;100.00
21545;BME280;10933;50.754;11.508;2024-01-15T05:45:06;98117.28;;;-0.67;100.00
21545;BME280;10933;50.754;11.508;2024-01-15T05:47:32;98112.19;;;-0.69;100.00
21545;BME280;10933;50.754;11.508;2024-01-15T05:50:00;98097.34;;;-0.70;100.00
21545;BME280;10933;50.754;11.508;2024-01-15T05:52:26;98103.81;;;-0.66;100.00
21545;BME280;10933;50.754;11.508;2024-01-15T05:54:52;98102.63;;;-0.70;100.00
21545;BME280;10933;50.754;11.508;2024-01-15T05:57:18;98091.16;;;-0.64;100.00
21545;BME280;10933;50.754;11.508;2024-01-15T05:59:45;98093.06;;;-0.71;100.00
21545;BME280;10933;50.754;11.508;2024-01-15T06:02:11;98082.97;;;-0.55;100.00
21545;BME280;10933;50.754;11.508;2024-01-15T06:04:37;98071.13;;;-0.78;100.00
21545;BME280;10933;50.754;11.508;2024-01-15T06:07:04;98089.03;;;-0.73;100.00
21545;BME280;10933;50.754;11.508;2024-01-15T06:09:30;98099.19;;;-0.70;100.00
21545;BME280;10933;50.754;11.508;2024-01-15T06:11:57;98100.06;;;-0.83;100.00
21545;BME280;10933;50.754;11.508;2024-01-15T06:14:23;98099.25;;;-0.83;100.00
21545;BME280;10933;50.754;11.508;2024-01-15T06:16:49;98095.59;;;-0.82;100.00
21545;BME280;10933;50.754;11.508;2024-01-15T06:19:15;98097.78;;;-0.73;100.00
21545;BME280;10933;50.754;11.508;2024-01-15T06:21:41;98107.13;;;-0.70;100.00
21545;BME280;10933;50.754;11.508;2024-01-15T06:24:08;98102.47;;;-0.75;100.00
21545;BME280;10933;50.754;11.508;2024-01-15T06:26:35;98083.31;;;-0.77;100.00
21545;BME280;10933;50.754;11.508;2024-01-15T06:29:02;98094.94;;;-0.78;100.00
21545;BME280;10933;50.754;11.508;2024-01-15T06:31:29;98090.28;;;-0.76;100.00
21545;BME280;10933;50.754;11.508;2024-01-15T06:33:55;98086.78;;;-0.76;100.00
21545;BME280;10933;50.754;11.508;2024-01-15T06:36:21;98102.78;;;-0.65;100.00
21545;BME280;10933;50.754;11.508;2024-01-15T06:38:47;98086.03;;;-0.83;100.00
21545;BME280;10933;50.754;11.508;2024-01-15T06:41:14;98083.75;;;-0.80;100.00
21545;BME280;10933;50.754;11.508;2024-01-15T06:43:40;98094.09;;;-0.72;100.00
21545;BME280;10933;50.754;11.508;2024-01-15T06:46:06;98095.84;;;-0.59;100.00
21545;BME280;10933;50.754;11.508;2024-01-15T06:48:32;98091.88;;;-0.75;100.00
21545;BME280;10933;50.754;11.508;2024-01-15T06:50:58;98101.16;;;-0.66;100.00
21545;BME280;10933;50.754;11.508;2024-01-15T06:53:24;98103.66;;;-0.71;100.00
21545;BME280;10933;50.754;11.508;2024-01-15T06:55:50;98094.44;;;-0.62;100.00
21545;BME280;10933;50.754;11.508;2024-01-15T06:58:17;98094.53;;;-0.75;100.00
21545;BME280;10933;50.754;11.508;2024-01-15T07:00:43;98084.06;;;-0.63;100.00
21545;BME280;10933;50.754;11.508;2024-01-15T07:03:09;98089.38;;;-0.63;100.00
21545;BME280;10933;50.754;11.508;2024-01-15T07:05:35;98083.06;;;-0.69;100.00
21545;BME280;10933;50.754;11.508;2024-01-15T07:08:03;98079.59;;;-0.63;100.00
21545;BME280;10933;50.754;11.508;2024-01-15T07:10:29;98079.06;;;-0.53;100.00
21545;BME280;10933;50.754;11.508;2024-01-15T07:12:55;98076.28;;;-0.58;100.00
21545;BME280;10933;50.754;11.508;2024-01-15T07:15:22;98074.69;;;-0.66;100.00
21545;BME280;10933;50.754;11.508;2024-01-15T07:17:48;98075.91;;;-0.62;100.00
21545;BME280;10933;50.754;11.508;2024-01-15T07:20:14;98076.94;;;-0.63;100.00
21545;BME280;10933;50.754;11.508;2024-01-15T07:22:40;98090.19;;;-0.63;100.00
21545;BME280;10933;50.754;11.508;2024-01-15T07:25:06;98091.78;;;-0.62;100.00
21545;BME280;10933;50.754;11.508;2024-01-15T07:27:33;98097.47;;;-0.58;100.00
21545;BME280;10933;50.754;11.508;2024-01-15T07:29:59;98084.59;;;-0.54;100.00
21545;BME280;10933;50.754;11.508;2024-01-15T07:32:25;98105.63;;;-0.60;100.00
21545;BME280;10933;50.754;11.508;2024-01-15T07:34:51;98100.91;;;-0.57;100.00
21545;BME280;10933;50.754;11.508;2024-01-15T07:37:17;98103.03;;;-0.41;100.00
21545;BME280;10933;50.754;11.508;2024-01-15T07:39:43;98091.09;;;-0.50;100.00
21545;BME280;10933;50.754;11.508;2024-01-15T07:42:09;98105.69;;;-0.41;100.00
21545;BME280;10933;50.754;11.508;2024-01-15T07:44:36;98099.31;;;-0.34;100.00
21545;BME280;10933;50.754;11.508;2024-01-15T07:47:02;98101.91;;;-0.27;100.00
21545;BME280;10933;50.754;11.508;2024-01-15T07:49:29;98103.38;;;-0.31;100.00
21545;BME280;10933;50.754;11.508;2024-01-15T07:51:55;98104.06;;;-0.17;100.00
21545;BME280;10933;50.754;11.508;2024-01-15T07:54:21;98115.75;;;-0.25;100.00
21545;BME280;10933;50.754;11.508;2024-01-15T07:56:56;98112.13;;;-0.06;100.00
21545;BME280;10933;50.754;11.508;2024-01-15T07:59:23;98118.19;;;0.02;100.00
21545;BME280;10933;50.754;11.508;2024-01-15T08:01:50;98117.06;;;-0.09;100.00
21545;BME280;10933;50.754;11.508;2024-01-15T08:04:16;98120.38;;;0.05;100.00
21545;BME280;10933;50.754;11.508;2024-01-15T08:06:43;98131.13;;;0.10;100.00
21545;BME280;10933;50.754;11.508;2024-01-15T08:09:09;98118.53;;;0.05;100.00
21545;BME280;10933;50.754;11.508;2024-01-15T08:11:35;98113.25;;;0.05;100.00
21545;BME280;10933;50.754;11.508;2024-01-15T08:14:02;98117.88;;;0.10;100.00
21545;BME280;10933;50.754;11.508;2024-01-15T08:16:28;98114.88;;;0.06;100.00
21545;BME280;10933;50.754;11.508;2024-01-15T08:18:54;98111.56;;;0.11;100.00
21545;BME280;10933;50.754;11.508;2024-01-15T08:21:20;98106.56;;;0.21;100.00
21545;BME280;10933;50.754;11.508;2024-01-15T08:23:46;98091.97;;;0.12;100.00
21545;BME280;10933;50.754;11.508;2024-01-15T08:26:12;98106.03;;;0.12;100.00
21545;BME280;10933;50.754;11.508;2024-01-15T08:28:38;98097.25;;;0.12;100.00
21545;BME280;10933;50.754;11.508;2024-01-15T08:31:04;98083.84;;;0.07;100.00
21545;BME280;10933;50.754;11.508;2024-01-15T08:33:30;98090.06;;;0.01;100.00
21545;BME280;10933;50.754;11.508;2024-01-15T08:35:56;98086.38;;;0.02;100.00
21545;BME280;10933;50.754;11.508;2024-01-15T08:38:23;98091.09;;;0.18;100.00
21545;BME280;10933;50.754;11.508;2024-01-15T08:40:50;98053.00;;;-0.06;100.00
21545;BME280;10933;50.754;11.508;2024-01-15T08:43:16;98075.47;;;0.10;100.00
21545;BME280;10933;50.754;11.508;2024-01-15T08:45:43;98090.34;;;0.47;100.00
21545;BME280;10933;50.754;11.508;2024-01-15T08:48:09;98079.59;;;0.61;100.00
21545;BME280;10933;50.754;11.508;2024-01-15T08:50:35;98094.63;;;0.48;100.00
21545;BME280;10933;50.754;11.508;2024-01-15T08:53:01;98100.06;;;0.35;100.00
21545;BME280;10933;50.754;11.508;2024-01-15T08:55:27;98106.88;;;0.31;100.00
21545;BME280;10933;50.754;11.508;2024-01-15T08:57:53;98100.81;;;0.24;100.00
21545;BME280;10933;50.754;11.508;2024-01-15T09:00:20;98097.59;;;0.40;100.00
21545;BME280;10933;50.754;11.508;2024-01-15T09:02:46;98100.22;;;0.58;100.00
21545;BME280;10933;50.754;11.508;2024-01-15T09:05:12;98095.38;;;0.55;100.00
21545;BME280;10933;50.754;11.508;2024-01-15T09:07:39;98089.78;;;0.64;100.00
21545;BME280;10933;50.754;11.508;2024-01-15T09:10:05;98107.06;;;0.84;100.00
21545;BME280;10933;50.754;11.508;2024-01-15T09:12:32;98115.72;;;1.40;100.00
21545;BME280;10933;50.754;11.508;2024-01-15T09:14:58;98098.91;;;0.98;100.00
21545;BME280;10933;50.754;11.508;2024-01-15T09:17:24;98106.53;;;0.94;100.00
21545;BME280;10933;50.754;11.508;2024-01-15T09:19:50;98121.47;;;0.77;100.00
21545;BME280;10933;50.754;11.508;2024-01-15T09:22:16;98113.00;;;0.98;100.00
21545;BME280;10933;50.754;11.508;2024-01-15T09:24:46;98109.88;;;1.73;100.00
21545;BME280;10933;50.754;11.508;2024-01-15T09:27:13;98109.63;;;2.56;100.00
21545;BME280;10933;50.754;11.508;2024-01-15T09:29:40;98114.84;;;2.40;100.00
21545;BME280;10933;50.754;11.508;2024-01-15T09:32:08;98112.34;;;2.21;100.00
21545;BME280;10933;50.754;11.508;2024-01-15T09:34:34;98118.47;;;2.85;100.00
21545;BME280;10933;50.754;11.508;2024-01-15T09:37:01;98128.50;;;4.36;100.00
21545;BME280;10933;50.754;11.508;2024-01-15T09:39:27;98105.81;;;4.17;100.00
21545;BME280;10933;50.754;11.508;2024-01-15T09:41:54;98090.31;;;3.46;100.00
21545;BME280;10933;50.754;11.508;2024-01-15T09:44:21;98094.91;;;3.68;100.00
21545;BME280;10933;50.754;11.508;2024-01-15T09:46:48;98087.63;;;3.63;100.00
21545;BME280;10933;50.754;11.508;2024-01-15T09:49:18;98111.22;;;5.04;100.00
21545;BME280;10933;50.754;11.508;2024-01-15T09:51:45;98086.31;;;4.77;100.00
21545;BME280;10933;50.754;11.508;2024-01-15T09:54:11;98085.09;;;4.24;100.00
21545;BME280;10933;50.754;11.508;2024-01-15T09:56:39;98089.22;;;4.14;100.00
21545;BME280;10933;50.754;11.508;2024-01-15T09:59:06;98082.72;;;4.88;100.00
21545;BME280;10933;50.754;11.508;2024-01-15T10:01:33;98086.75;;;5.17;100.00
21545;BME280;10933;50.754;11.508;2024-01-15T10:04:02;98086.47;;;6.00;100.00
21545;BME280;10933;50.754;11.508;2024-01-15T10:06:28;98086.06;;;5.54;100.00
21545;BME280;10933;50.754;11.508;2024-01-15T10:08:57;98066.81;;;4.54;100.00
21545;BME280;10933;50.754;11.508;2024-01-15T10:11:26;98068.84;;;4.69;100.00
21545;BME280;10933;50.754;11.508;2024-01-15T10:13:52;98078.13;;;5.64;100.00
21545;BME280;10933;50.754;11.508;2024-01-15T10:16:23;98071.41;;;5.61;100.00
21545;BME280;10933;50.754;11.508;2024-01-15T10:18:49;98074.66;;;5.37;100.00
21545;BME280;10933;50.754;11.508;2024-01-15T10:21:16;98047.94;;;4.61;100.00
21545;BME280;10933;50.754;11.508;2024-01-15T10:23:42;98075.81;;;5.19;100.00
21545;BME280;10933;50.754;11.508;2024-01-15T10:26:08;98066.88;;;5.62;100.00
21545;BME280;10933;50.754;11.508;2024-01-15T10:28:34;98064.38;;;5.55;100.00
21545;BME280;10933;50.754;11.508;2024-01-15T10:31:01;98057.97;;;5.24;100.00
21545;BME280;10933;50.754;11.508;2024-01-15T10:33:27;98081.38;;;5.98;100.00
21545;BME280;10933;50.754;11.508;2024-01-15T10:35:58;98066.53;;;5.26;100.00
21545;BME280;10933;50.754;11.508;2024-01-15T10:38:25;98043.31;;;5.59;100.00
21545;BME280;10933;50.754;11.508;2024-01-15T10:40:53;98053.34;;;4.93;100.00
21545;BME280;10933;50.754;11.508;2024-01-15T10:43:19;98059.22;;;4.90;100.00
21545;BME280;10933;50.754;11.508;2024-01-15T10:45:47;98038.41;;;4.26;100.00
21545;BME280;10933;50.754;11.508;2024-01-15T10:48:14;98056.28;;;3.87;100.00
21545;BME280;10933;50.754;11.508;2024-01-15T10:50:42;98054.13;;;4.06;100.00
21545;BME280;10933;50.754;11.508;2024-01-15T10:53:09;98049.09;;;3.37;100.00
21545;BME280;10933;50.754;11.508;2024-01-15T10:55:38;98055.00;;;4.50;100.00
21545;BME280;10933;50.754;11.508;2024-01-15T10:58:05;98052.31;;;4.94;100.00
21545;BME280;10933;50.754;11.508;2024-01-15T11:00:35;98052.81;;;4.69;100.00
21545;BME280;10933;50.754;11.508;2024-01-15T11:03:02;98036.09;;;3.58;100.00
21545;BME280;10933;50.754;11.508;2024-01-15T11:05:32;98054.66;;;3.86;100.00
21545;BME280;10933;50.754;11.508;2024-01-15T11:07:59;98048.03;;;3.38;100.00
21545;BME280;10933;50.754;11.508;2024-01-15T11:10:39;98052.38;;;3.11;100.00
21545;BME280;10933;50.754;11.508;2024-01-15T11:16:01;98057.69;;;2.82;100.00
21545;BME280;10933;50.754;11.508;2024-01-15T11:18:29;98044.94;;;2.56;100.00
21545;BME280;10933;50.754;11.508;2024-01-15T11:24:02;98031.78;;;2.38;100.00
21545;BME280;10933;50.754;11.508;2024-01-15T11:26:36;98050.44;;;2.66;100.00
21545;BME280;10933;50.754;11.508;2024-01-15T11:29:07;98041.69;;;2.54;100.00
21545;BME280;10933;50.754;11.508;2024-01-15T11:34:10;98056.38;;;2.16;100.00
21545;BME280;10933;50.754;11.508;2024-01-15T11:42:02;98043.78;;;2.52;100.00
21545;BME280;10933;50.754;11.508;2024-01-15T11:44:30;98043.97;;;2.62;100.00
21545;BME280;10933;50.754;11.508;2024-01-15T11:47:00;98047.06;;;2.82;100.00
21545;BME280;10933;50.754;11.508;2024-01-15T11:52:22;98038.38;;;2.75;100.00
21545;BME280;10933;50.754;11.508;2024-01-15T11:55:02;98038.63;;;2.74;100.00
21545;BME280;10933;50.754;11.508;2024-01-15T11:57:46;98034.75;;;2.53;100.00
21545;BME280;10933;50.754;11.508;2024-01-15T12:00:14;98040.88;;;2.53;100.00
21545;BME280;10933;50.754;11.508;2024-01-15T12:02:46;98038.88;;;2.72;100.00
21545;BME280;10933;50.754;11.508;2024-01-15T12:05:14;98036.25;;;2.60;100.00
21545;BME280;10933;50.754;11.508;2024-01-15T12:07:48;98031.91;;;2.71;100.00
21545;BME280;10933;50.754;11.508;2024-01-15T12:10:20;98024.88;;;2.93;100.00
21545;BME280;10933;50.754;11.508;2024-01-15T12:13:05;98024.41;;;2.97;100.00
21545;BME280;10933;50.754;11.508;2024-01-15T12:15:35;98027.34;;;2.55;100.00
21545;BME280;10933;50.754;11.508;2024-01-15T12:18:02;98019.47;;;2.60;100.00
21545;BME280;10933;50.754;11.508;2024-01-15T12:20:29;98011.19;;;2.45;100.00
21545;BME280;10933;50.754;11.508;2024-01-15T12:22:56;98018.56;;;2.54;100.00
21545;BME280;10933;50.754;11.508;2024-01-15T12:25:23;98003.56;;;2.36;100.00
21545;BME280;10933;50.754;11.508;2024-01-15T12:27:51;98011.91;;;2.28;100.00
21545;BME280;10933;50.754;11.508;2024-01-15T12:30:17;98010.44;;;2.21;100.00
21545;BME280;10933;50.754;11.508;2024-01-15T12:32:43;98014.03;;;2.03;100.00
21545;BME280;10933;50.754;11.508;2024-01-15T12:35:13;98004.53;;;2.19;100.00
21545;BME280;10933;50.754;11.508;2024-01-15T12:37:41;98014.78;;;2.27;100.00
21545;BME280;10933;50.754;11.508;2024-01-15T12:40:08;98013.97;;;2.38;100.00
21545;BME280;10933;50.754;11.508;2024-01-15T12:42:41;98006.00;;;2.26;100.00
21545;BME280;10933;50.754;11.508;2024-01-15T12:45:11;98009.50;;;2.15;100.00
21545;BME280;10933;50.754;11.508;2024-01-15T12:47:38;98010.69;;;2.08;100.00
21545;BME280;10933;50.754;11.508;2024-01-15T12:50:14;97987.66;;;2.13;100.00
21545;BME280;10933;50.754;11.508;2024-01-15T12:52:41;98015.53;;;1.99;100.00
21545;BME280;10933;50.754;11.508;2024-01-15T12:55:08;98009.19;;;2.00;100.00
21545;BME280;10933;50.754;11.508;2024-01-15T12:57:35;98002.78;;;2.24;100.00
21545;BME280;10933;50.754;11.508;2024-01-15T13:00:06;98028.81;;;2.22;100.00